createdAt,value
2019-05-09T00:00:04.005Z,80.50
2019-05-09T00:02:33.997Z,80.60
2019-05-09T00:05:03.572Z,80.60
2019-05-09T00:07:33.710Z,80.80
2019-05-09T00:10:05.129Z,80.80
2019-05-09T00:12:33.805Z,80.90
2019-05-09T00:15:04.759Z,81.10
2019-05-09T00:17:33.904Z,81.30
2019-05-09T00:20:04.395Z,81.20
2019-05-09T00:22:33.416Z,81.20
2019-05-09T00:25:04.718Z,81.20
2019-05-09T00:27:33.305Z,81.30
2019-05-09T00:30:04.227Z,81.20
2019-05-09T00:32:34.458Z,81.20
2019-05-09T00:35:14.158Z,81.30
2019-05-09T00:37:59.187Z,81.30
2019-05-09T00:40:27.732Z,81.20
2019-05-09T00:42:56.352Z,81.20
2019-05-09T00:45:43.854Z,81.20
2019-05-09T00:48:14.252Z,81.30
2019-05-09T00:50:43.719Z,81.20
2019-05-09T00:53:13.791Z,81.40
2019-05-09T00:55:43.661Z,81.30
2019-05-09T00:58:13.572Z,81.30
2019-05-09T01:00:43.960Z,81.40
2019-05-09T01:03:14.194Z,81.40
2019-05-09T01:05:43.677Z,81.40
2019-05-09T01:08:13.708Z,81.40
2019-05-09T01:10:43.634Z,81.40
2019-05-09T01:13:14.224Z,81.40
2019-05-09T01:15:44.032Z,81.50
2019-05-09T01:18:13.306Z,81.50
2019-05-09T01:20:43.982Z,81.60
2019-05-09T01:23:14.213Z,81.60
2019-05-09T01:25:43.606Z,81.60
2019-05-09T01:28:13.927Z,81.60
2019-05-09T01:30:43.809Z,81.70
2019-05-09T01:33:33.274Z,81.70
2019-05-09T01:36:03.745Z,81.70
2019-05-09T01:38:33.882Z,81.80
2019-05-09T01:41:04.074Z,81.90
2019-05-09T01:43:33.731Z,81.90
2019-05-09T01:46:03.895Z,82.00
2019-05-09T01:48:34.137Z,82.00
2019-05-09T01:51:03.944Z,82.00
2019-05-09T01:53:34.057Z,82.10
2019-05-09T01:56:04.236Z,82.20
2019-05-09T01:58:34.244Z,82.20
2019-05-09T02:01:06.462Z,82.20
2019-05-09T02:03:35.061Z,82.30
2019-05-09T02:06:05.943Z,82.30
2019-05-09T02:08:35.321Z,82.50
2019-05-09T02:11:04.966Z,82.50
2019-05-09T02:13:34.737Z,82.60
2019-05-09T02:16:14.243Z,82.70
2019-05-09T02:18:44.451Z,82.60
2019-05-09T02:21:14.547Z,82.60
2019-05-09T02:23:43.494Z,82.70
2019-05-09T02:26:13.530Z,82.70
2019-05-09T02:28:43.276Z,82.90
2019-05-09T02:31:24.545Z,82.80
2019-05-09T02:33:54.171Z,83.10
2019-05-09T02:36:23.214Z,82.90
2019-05-09T02:38:51.778Z,82.90
2019-05-09T02:41:20.316Z,83.10
2019-05-09T02:43:49.776Z,83.20
2019-05-09T02:46:29.063Z,83.30
2019-05-09T02:48:59.146Z,83.40
2019-05-09T02:51:28.963Z,83.50
2019-05-09T02:53:58.582Z,83.50
2019-05-09T02:56:29.481Z,83.50
2019-05-09T02:58:59.071Z,83.60
2019-05-09T03:01:43.549Z,83.50
2019-05-09T03:04:12.076Z,83.90
2019-05-09T03:06:40.610Z,83.60
2019-05-09T03:09:09.293Z,83.70
2019-05-09T03:11:38.808Z,83.90
2019-05-09T03:14:09.106Z,83.80
2019-05-09T03:16:39.727Z,83.90
2019-05-09T03:19:09.360Z,83.90
2019-05-09T03:21:40.646Z,84.00
2019-05-09T03:24:10.025Z,84.00
2019-05-09T03:26:40.414Z,84.10
2019-05-09T03:29:10.536Z,84.10
2019-05-09T03:31:40.697Z,84.20
2019-05-09T03:34:09.692Z,84.10
2019-05-09T03:36:38.610Z,84.10
2019-05-09T03:39:08.679Z,84.10
2019-05-09T03:41:39.526Z,84.20
2019-05-09T03:44:07.700Z,84.20
2019-05-09T03:46:54.951Z,84.20
2019-05-09T03:49:24.805Z,84.20
2019-05-09T03:51:54.920Z,84.30
2019-05-09T03:54:23.394Z,84.80
2019-05-09T03:57:10.026Z,84.20
2019-05-09T03:59:38.510Z,84.20
2019-05-09T04:02:09.866Z,84.20
2019-05-09T04:04:38.363Z,84.30
2019-05-09T04:07:08.382Z,84.30
2019-05-09T04:09:37.481Z,84.30
2019-05-09T04:12:07.610Z,84.30
2019-05-09T04:14:38.412Z,84.30
2019-05-09T04:17:09.955Z,84.40
2019-05-09T04:19:40.492Z,84.40
2019-05-09T04:22:08.684Z,84.40
2019-05-09T04:24:38.205Z,84.40
2019-05-09T04:27:10.134Z,84.40
2019-05-09T04:29:39.371Z,84.50
2019-05-09T04:32:08.154Z,84.50
2019-05-09T04:34:38.073Z,84.40
2019-05-09T04:37:08.074Z,84.30
2019-05-09T04:39:40.496Z,84.30
2019-05-09T04:42:13.495Z,84.20
2019-05-09T04:44:43.903Z,84.60
2019-05-09T04:47:12.378Z,84.10
2019-05-09T04:49:45.019Z,84.10
2019-05-09T04:52:11.067Z,84.10
2019-05-09T04:54:39.521Z,83.90
2019-05-09T04:57:08.094Z,83.80
2019-05-09T04:59:37.392Z,83.90
2019-05-09T05:02:09.429Z,83.80
2019-05-09T05:04:39.607Z,83.60
2019-05-09T05:07:09.477Z,83.50
2019-05-09T05:09:38.115Z,83.40
2019-05-09T05:12:10.134Z,83.40
2019-05-09T05:14:38.695Z,83.20
2019-05-09T05:17:10.954Z,83.10
2019-05-09T05:19:38.357Z,82.90
2019-05-09T05:22:12.339Z,82.90
2019-05-09T05:24:50.744Z,82.70
2019-05-09T05:27:19.286Z,82.50
2019-05-09T05:29:47.759Z,82.50
2019-05-09T05:32:18.043Z,82.40
2019-05-09T05:35:03.133Z,82.20
2019-05-09T05:37:31.833Z,82.00
2019-05-09T05:40:01.120Z,81.80
2019-05-09T05:42:29.650Z,81.50
2019-05-09T05:44:58.407Z,81.40
2019-05-09T05:47:31.382Z,81.10
2019-05-09T05:49:59.904Z,81.20
2019-05-09T05:52:29.888Z,80.90
2019-05-09T05:55:00.435Z,80.70
2019-05-09T05:57:28.879Z,80.50
2019-05-09T05:59:58.579Z,80.30
2019-05-09T06:02:47.868Z,80.00
2019-05-09T06:05:18.739Z,80.10
2019-05-09T06:07:49.592Z,79.60
2019-05-09T06:10:18.837Z,80.30
2019-05-09T06:12:48.164Z,79.20
2019-05-09T06:15:18.370Z,79.10
2019-05-09T06:17:48.421Z,78.80
2019-05-09T06:20:17.873Z,78.60
2019-05-09T06:22:47.721Z,78.50
2019-05-09T06:25:20.667Z,78.30
2019-05-09T06:27:48.755Z,78.10
2019-05-09T06:30:30.356Z,78.20
2019-05-09T06:32:59.871Z,77.80
2019-05-09T06:35:29.199Z,77.60
2019-05-09T06:37:58.841Z,77.40
2019-05-09T06:40:28.664Z,77.30
2019-05-09T06:42:59.903Z,77.20
2019-05-09T06:45:41.849Z,77.00
2019-05-09T06:48:11.406Z,76.80
2019-05-09T06:50:39.956Z,76.70
2019-05-09T06:53:09.740Z,76.40
2019-05-09T06:55:38.617Z,76.30
2019-05-09T06:58:27.557Z,76.00
2019-05-09T07:00:58.399Z,76.00
2019-05-09T07:03:28.971Z,75.80
2019-05-09T07:06:00.448Z,75.40
2019-05-09T07:08:33.948Z,75.20
2019-05-09T07:11:02.682Z,75.30
2019-05-09T07:13:32.911Z,75.20
2019-05-09T07:16:01.503Z,75.10
2019-05-09T07:18:31.404Z,74.70
2019-05-09T07:21:00.790Z,74.50
2019-05-09T07:23:29.373Z,74.20
2019-05-09T07:25:59.593Z,74.20
2019-05-09T07:28:28.329Z,73.90
2019-05-09T07:30:58.547Z,73.80
2019-05-09T07:33:28.797Z,73.60
2019-05-09T07:35:58.059Z,73.30
2019-05-09T07:38:31.824Z,73.20
2019-05-09T07:41:00.733Z,73.00
2019-05-09T07:43:29.312Z,72.90
2019-05-09T07:46:04.437Z,72.70
2019-05-09T07:48:37.917Z,72.40
2019-05-09T07:51:07.883Z,71.70
2019-05-09T07:53:38.088Z,71.60
2019-05-09T07:56:07.928Z,71.30
2019-05-09T07:58:37.746Z,71.10
2019-05-09T08:01:08.549Z,70.90
2019-05-09T08:03:38.465Z,70.60
2019-05-09T08:06:08.723Z,70.50
2019-05-09T08:08:38.595Z,70.20
2019-05-09T08:11:08.853Z,70.10
2019-05-09T08:13:39.792Z,69.80
2019-05-09T08:16:14.112Z,69.40
2019-05-09T08:18:38.377Z,69.10
2019-05-09T08:21:08.451Z,68.90
2019-05-09T08:23:37.965Z,68.70
2019-05-09T08:26:08.739Z,68.40
2019-05-09T08:28:39.013Z,67.70
2019-05-09T08:31:08.313Z,67.70
2019-05-09T08:33:38.110Z,67.70
2019-05-09T08:36:08.625Z,67.40
2019-05-09T08:38:58.615Z,66.70
2019-05-09T08:41:29.074Z,66.90
2019-05-09T08:43:57.707Z,66.60
2019-05-09T08:46:28.619Z,66.20
2019-05-09T08:48:57.595Z,65.60
2019-05-09T08:52:02.963Z,65.30
2019-05-09T08:54:34.827Z,64.90
2019-05-09T08:57:03.299Z,64.50
2019-05-09T08:59:31.824Z,64.20
2019-05-09T09:02:21.035Z,63.80
2019-05-09T09:04:30.653Z,63.70
2019-05-09T09:07:00.773Z,63.50
2019-05-09T09:09:29.334Z,63.10
2019-05-09T09:11:58.465Z,62.90
2019-05-09T09:14:28.197Z,62.50
2019-05-09T09:16:57.682Z,62.10
2019-05-09T09:19:28.038Z,61.90
2019-05-09T09:22:00.515Z,61.40
2019-05-09T09:24:28.309Z,60.90
2019-05-09T09:26:57.501Z,60.80
2019-05-09T09:29:28.214Z,60.70
2019-05-09T09:31:57.607Z,60.80
2019-05-09T09:34:29.948Z,61.20
2019-05-09T09:37:04.170Z,60.40
2019-05-09T09:39:29.609Z,60.00
2019-05-09T09:41:58.687Z,59.50
2019-05-09T09:44:28.778Z,59.30
2019-05-09T09:46:59.099Z,59.20
2019-05-09T09:49:29.355Z,58.90
2019-05-09T09:51:58.267Z,58.80
2019-05-09T09:54:28.675Z,58.80
2019-05-09T09:56:58.576Z,58.20
2019-05-09T09:59:31.927Z,57.90
2019-05-09T10:02:02.082Z,57.90
2019-05-09T10:04:30.972Z,57.40
2019-05-09T10:07:02.417Z,57.00
2019-05-09T10:09:30.866Z,56.60
2019-05-09T10:12:00.744Z,55.90
2019-05-09T10:14:32.625Z,55.80
2019-05-09T10:17:10.423Z,55.80
2019-05-09T10:19:48.181Z,55.70
2019-05-09T10:22:27.836Z,55.70
2019-05-09T10:24:58.589Z,55.90
2019-05-09T10:27:28.406Z,56.00
2019-05-09T10:29:57.501Z,55.90
2019-05-09T10:32:28.557Z,55.90
2019-05-09T10:34:58.062Z,55.80
2019-05-09T10:37:28.457Z,55.20
2019-05-09T10:39:58.063Z,54.80
2019-05-09T10:42:28.822Z,54.60
2019-05-09T10:45:01.638Z,54.30
2019-05-09T10:47:31.866Z,54.30
2019-05-09T10:50:00.362Z,53.90
2019-05-09T10:52:29.307Z,53.50
2019-05-09T10:54:58.133Z,53.30
2019-05-09T10:57:31.895Z,52.90
2019-05-09T10:59:57.954Z,52.60
2019-05-09T11:02:27.935Z,51.80
2019-05-09T11:04:57.681Z,51.40
2019-05-09T11:07:28.743Z,51.10
2019-05-09T11:09:58.748Z,50.60
2019-05-09T11:12:27.589Z,50.70
2019-05-09T11:14:59.148Z,50.60
2019-05-09T11:17:28.379Z,49.90
2019-05-09T11:19:58.712Z,49.20
2019-05-09T11:22:29.224Z,49.00
2019-05-09T11:24:59.270Z,48.20
2019-05-09T11:27:29.250Z,48.10
2019-05-09T11:29:58.334Z,47.30
2019-05-09T11:32:27.732Z,47.80
2019-05-09T11:34:57.628Z,48.40
2019-05-09T11:37:28.005Z,48.20
2019-05-09T11:39:58.116Z,48.00
2019-05-09T11:42:28.547Z,48.50
2019-05-09T11:49:48.621Z,48.70
2019-05-09T11:52:18.391Z,49.10
2019-05-09T11:54:48.250Z,50.30
2019-05-09T11:57:19.129Z,49.70
2019-05-09T11:59:48.006Z,49.70
2019-05-09T12:02:18.033Z,50.10
2019-05-09T12:04:48.669Z,50.10
2019-05-09T12:07:17.902Z,49.80
2019-05-09T12:09:48.849Z,49.70
2019-05-09T12:12:19.351Z,48.80
2019-05-09T12:14:48.424Z,48.00
2019-05-09T12:17:19.678Z,47.80
2019-05-09T12:19:48.918Z,47.40
2019-05-09T12:22:19.122Z,46.70
2019-05-09T12:24:48.158Z,46.00
2019-05-09T12:27:19.770Z,46.50
2019-05-09T12:29:48.441Z,46.40
2019-05-09T12:32:18.693Z,46.20
2019-05-09T12:34:48.014Z,45.80
2019-05-09T12:37:18.235Z,45.80
2019-05-09T12:39:47.992Z,44.90
2019-05-09T12:42:39.641Z,45.20
2019-05-09T12:45:09.847Z,45.70
2019-05-09T12:47:39.704Z,45.30
2019-05-09T12:50:09.192Z,44.10
2019-05-09T12:52:39.282Z,43.60
2019-05-09T12:55:08.433Z,43.30
2019-05-09T12:57:38.671Z,42.10
2019-05-09T13:09:37.853Z,42.20
2019-05-09T13:12:08.441Z,42.10
2019-05-09T13:14:38.183Z,42.40
2019-05-09T13:17:18.544Z,42.40
2019-05-09T13:19:50.868Z,42.90
2019-05-09T13:22:21.600Z,43.30
2019-05-09T13:24:50.186Z,43.20
2019-05-09T13:27:19.546Z,43.30
2019-05-09T13:29:50.514Z,42.80
2019-05-09T13:32:27.927Z,42.70
2019-05-09T13:34:57.915Z,42.60
2019-05-09T13:37:32.017Z,42.50
2019-05-09T13:40:01.517Z,42.40
2019-05-09T13:42:32.608Z,41.90
2019-05-09T13:45:02.669Z,41.80
2019-05-09T13:47:31.123Z,41.90
2019-05-09T13:49:59.650Z,41.70
2019-05-09T13:52:28.349Z,42.10
2019-05-09T14:03:29.277Z,39.60
2019-05-09T14:06:01.824Z,40.50
2019-05-09T14:17:13.703Z,41.50
2019-05-09T14:19:46.911Z,42.00
2019-05-09T14:22:17.615Z,42.50
2019-05-09T14:24:48.558Z,42.90
2019-05-09T14:27:18.896Z,42.60
2019-05-09T14:29:49.949Z,41.20
2019-05-09T14:32:18.470Z,41.10
2019-05-09T14:34:49.866Z,40.40
2019-05-09T14:43:02.188Z,40.40
2019-05-09T14:45:31.767Z,40.30
2019-05-09T14:48:03.264Z,40.30
2019-05-09T14:50:31.777Z,41.10
2019-05-09T14:53:00.268Z,41.40
2019-05-09T14:55:29.594Z,42.30
2019-05-09T14:57:58.068Z,42.40
2019-05-09T15:00:26.712Z,42.40
2019-05-09T15:02:55.245Z,41.40
2019-05-09T15:05:27.737Z,40.40
2019-05-09T15:07:58.885Z,39.50
2019-05-09T15:10:25.766Z,39.10
2019-05-09T15:12:58.391Z,38.90
2019-05-09T15:15:32.605Z,38.20
2019-05-09T15:17:59.777Z,37.20
2019-05-09T15:20:28.388Z,36.70
2019-05-09T15:22:58.769Z,36.10
2019-05-09T15:25:28.122Z,34.30
2019-05-09T15:27:58.164Z,33.70
2019-05-09T15:30:28.687Z,33.60
2019-05-09T15:32:58.749Z,34.30
2019-05-09T15:35:28.126Z,35.60
2019-05-09T15:37:59.016Z,37.40
2019-05-09T15:40:28.472Z,39.00
2019-05-09T15:42:58.797Z,40.30
2019-05-09T15:45:29.200Z,41.10
2019-05-09T15:47:58.413Z,40.90
2019-05-09T15:50:27.815Z,39.70
2019-05-09T15:52:57.966Z,38.40
2019-05-09T15:55:28.355Z,35.80
2019-05-09T15:57:57.814Z,33.60
2019-05-09T16:00:28.339Z,32.70
2019-05-09T16:02:59.026Z,31.50
2019-05-09T16:05:27.097Z,30.50
2019-05-09T16:07:55.647Z,29.80
2019-05-09T16:10:25.513Z,29.80
2019-05-09T16:12:54.373Z,29.90
2019-05-09T16:15:22.827Z,30.40
2019-05-09T16:17:51.342Z,31.10
2019-05-09T16:20:36.349Z,32.60
2019-05-09T16:22:50.071Z,34.30
2019-05-09T16:25:20.152Z,36.00
2019-05-09T16:27:48.779Z,37.70
2019-05-09T16:30:17.446Z,39.00
2019-05-09T16:32:47.890Z,40.40
2019-05-09T16:35:18.285Z,42.10
2019-05-09T16:38:01.765Z,43.30
2019-05-09T16:40:20.789Z,44.40
2019-05-09T16:42:49.325Z,45.60
2019-05-09T16:45:18.456Z,47.70
2019-05-09T16:47:48.514Z,49.30
2019-05-09T16:50:18.799Z,49.30
2019-05-09T16:52:49.072Z,49.60
2019-05-09T16:55:23.893Z,48.70
2019-05-09T16:57:52.364Z,46.90
2019-05-09T17:00:27.312Z,46.90
2019-05-09T17:02:58.798Z,46.10
2019-05-09T17:05:31.774Z,45.30
2019-05-09T17:08:00.283Z,43.20
2019-05-09T17:10:28.791Z,39.20
2019-05-09T17:12:58.259Z,35.90
2019-05-09T17:15:29.193Z,35.40
2019-05-09T17:17:58.153Z,33.70
2019-05-09T17:20:28.679Z,33.20
2019-05-09T17:23:14.748Z,32.50
2019-05-09T17:25:41.009Z,32.70
2019-05-09T17:28:09.540Z,32.70
2019-05-09T17:30:38.548Z,33.10
2019-05-09T17:33:07.896Z,33.70
2019-05-09T17:35:38.606Z,34.30
2019-05-09T17:38:08.716Z,35.00
2019-05-09T17:40:38.989Z,35.20
2019-05-09T17:43:09.251Z,35.90
2019-05-09T17:45:42.101Z,36.90
2019-05-09T17:48:09.023Z,37.40
2019-05-09T17:50:38.410Z,38.10
2019-05-09T17:53:14.311Z,38.70
2019-05-09T17:55:42.880Z,39.60
2019-05-09T17:58:25.852Z,40.40
2019-05-09T18:00:43.379Z,41.20
2019-05-09T18:03:12.010Z,41.80
2019-05-09T18:05:40.743Z,42.70
2019-05-09T18:08:09.212Z,43.30
2019-05-09T18:10:39.226Z,43.50
2019-05-09T18:13:08.165Z,44.10
2019-05-09T18:15:37.913Z,44.70
2019-05-09T18:18:06.738Z,44.90
2019-05-09T18:20:37.711Z,45.30
2019-05-09T18:23:07.869Z,45.70
2019-05-09T18:25:37.755Z,45.80
2019-05-09T18:28:07.515Z,45.90
2019-05-09T18:30:38.865Z,46.30
2019-05-09T18:33:09.440Z,46.70
2019-05-09T18:35:38.145Z,47.30
2019-05-09T18:38:09.651Z,48.00
2019-05-09T18:40:38.419Z,48.70
2019-05-09T18:43:07.695Z,49.40
2019-05-09T18:45:37.609Z,50.40
2019-05-09T18:48:08.289Z,51.20
2019-05-09T18:50:36.523Z,52.40
2019-05-09T18:53:08.909Z,52.40
2019-05-09T18:55:37.374Z,52.90
2019-05-09T18:58:05.850Z,53.40
2019-05-09T19:00:35.427Z,53.90
2019-05-09T19:03:04.850Z,54.10
2019-05-09T19:05:33.312Z,55.20
2019-05-09T19:08:01.863Z,55.10
2019-05-09T19:10:30.432Z,55.30
2019-05-09T19:13:01.768Z,55.40
2019-05-09T19:15:34.745Z,55.60
2019-05-09T19:18:04.906Z,55.90
2019-05-09T19:20:35.066Z,56.00
2019-05-09T19:23:04.611Z,56.70
2019-05-09T19:25:35.374Z,56.90
2019-05-09T19:28:05.213Z,57.20
2019-05-09T19:30:33.818Z,57.40
2019-05-09T19:33:02.408Z,57.70
2019-05-09T19:35:30.874Z,58.10
2019-05-09T19:37:59.335Z,58.20
2019-05-09T19:40:27.817Z,58.60
2019-05-09T19:42:56.351Z,58.80
2019-05-09T19:45:24.824Z,59.10
2019-05-09T19:47:53.330Z,59.30
2019-05-09T19:50:22.575Z,59.30
2019-05-09T19:52:51.084Z,59.50
2019-05-09T19:55:21.232Z,59.80
2019-05-09T19:57:49.700Z,59.90
2019-05-09T20:00:21.617Z,59.90
2019-05-09T20:02:50.161Z,60.20
2019-05-09T20:05:19.775Z,60.40
2019-05-09T20:07:48.259Z,60.60
2019-05-09T20:10:21.468Z,60.80
2019-05-09T20:12:51.635Z,61.00
2019-05-09T20:15:22.278Z,61.10
2019-05-09T20:17:52.283Z,61.70
2019-05-09T20:20:22.622Z,61.80
2019-05-09T20:22:53.154Z,62.00
2019-05-09T20:25:21.520Z,62.20
2019-05-09T20:27:50.014Z,62.40
2019-05-09T20:30:18.815Z,62.60
2019-05-09T20:32:47.311Z,62.90
2019-05-09T20:35:15.938Z,63.00
2019-05-09T20:37:44.688Z,63.10
2019-05-09T20:40:14.447Z,63.30
2019-05-09T20:42:43.093Z,63.50
2019-05-09T20:45:11.805Z,63.60
2019-05-09T20:47:40.505Z,63.80
2019-05-09T20:50:10.690Z,64.00
2019-05-09T20:52:40.884Z,64.10
2019-05-09T20:55:09.610Z,64.30
2019-05-09T20:57:39.712Z,64.40
2019-05-09T21:00:08.591Z,64.70
2019-05-09T21:02:37.318Z,65.10
2019-05-09T21:05:07.092Z,65.50
2019-05-09T21:07:35.737Z,65.20
2019-05-09T21:10:05.942Z,64.60
2019-05-09T21:12:34.579Z,64.80
2019-05-09T21:15:03.613Z,66.10
2019-05-09T21:17:32.272Z,67.30
2019-05-09T21:20:02.061Z,68.40
2019-05-09T21:22:30.764Z,69.00
2019-05-09T21:24:59.480Z,69.90
2019-05-09T21:27:28.120Z,70.90
2019-05-09T21:29:56.783Z,71.60
2019-05-09T21:32:25.511Z,73.00
2019-05-09T21:34:55.149Z,72.80
2019-05-09T21:37:24.756Z,73.10
2019-05-09T21:39:55.107Z,73.60
2019-05-09T21:42:24.311Z,73.90
2019-05-09T21:44:52.771Z,74.40
2019-05-09T21:47:21.295Z,74.70
2019-05-09T21:49:49.765Z,75.00
2019-05-09T21:52:18.315Z,75.40
2019-05-09T21:54:46.796Z,75.80
2019-05-09T21:57:15.292Z,76.30
2019-05-09T21:59:43.813Z,76.70
2019-05-09T22:02:13.346Z,76.90
2019-05-09T22:04:41.827Z,77.20
2019-05-09T22:07:10.294Z,77.20
2019-05-09T22:09:38.934Z,77.50
2019-05-09T22:12:08.096Z,77.80
2019-05-09T22:14:36.629Z,78.10
2019-05-09T22:17:09.427Z,78.40
2019-05-09T22:19:38.086Z,78.40
2019-05-09T22:22:07.393Z,78.50
2019-05-09T22:24:35.863Z,78.70
2019-05-09T22:27:05.243Z,78.70
2019-05-09T22:29:33.769Z,78.90
2019-05-09T22:32:02.240Z,79.10
2019-05-09T22:34:30.812Z,79.20
2019-05-09T22:36:59.339Z,79.30
2019-05-09T22:39:27.828Z,79.40
2019-05-09T22:41:56.335Z,79.50
2019-05-09T22:44:24.864Z,79.70
2019-05-09T22:46:53.333Z,79.90
2019-05-09T22:49:23.503Z,80.00
2019-05-09T22:51:51.980Z,80.10
2019-05-09T22:54:21.404Z,80.20
2019-05-09T22:56:49.945Z,80.30
2019-05-09T22:59:18.542Z,80.30
2019-05-09T23:01:47.017Z,80.40
2019-05-09T23:04:15.590Z,80.40
2019-05-09T23:06:44.051Z,80.60
2019-05-09T23:09:12.513Z,80.60
2019-05-09T23:11:41.065Z,80.70
2019-05-09T23:14:09.543Z,80.80
2019-05-09T23:16:39.872Z,80.90
2019-05-09T23:19:08.356Z,80.90
2019-05-09T23:21:36.899Z,81.00
2019-05-09T23:24:07.169Z,81.00
2019-05-09T23:26:35.654Z,81.10
2019-05-09T23:29:04.649Z,81.20
2019-05-09T23:31:48.384Z,81.50
2019-05-09T23:34:16.884Z,81.40
2019-05-09T23:36:45.378Z,81.40
2019-05-09T23:39:21.703Z,81.50
2019-05-09T23:41:50.162Z,81.60
2019-05-09T23:44:18.626Z,81.60
2019-05-09T23:46:47.121Z,81.60
2019-05-09T23:49:15.573Z,82.50
2019-05-09T23:51:48.867Z,81.70
2019-05-09T23:54:48.184Z,81.70
2019-05-09T23:57:29.226Z,81.60
